Portada
METAR-TAF:

METAR-TAF

Aeroports :

Hazleton, Pennsilvània, Estats Units d'Amèrica

latitud: 40-59-12N, longitud: 075-59-42W, altitud: 489 m

Observació

L'informe es va fer fa 7 minuts, a les 18:35 UTC
Vent 3 kt del Sud/Sud-Est
Temperatura 28°C
Humitat 48%
Pressió 1024 hPa
Visibilitat: 16.1 km
Núvols disperses a una alçada de 4200 ft
Cel ennuvolat a una alçada de 4900 ft
Cel cobert a una alçada de 6500 ft

METAR: KHZL 261835Z AUTO 16003KT 10SM SCT042 BKN049 OVC065 28/16 A3023 RMK AO2

Hora: 14:42 (18:42 UTC)


TAF: manca

Observacions i pronòstics meteorològics de més de 4000 aeroports (METAR i TAF).

Les estacions disponibles són els punts grocs i vermells al mapa.

Posi el ratolí al punt desitjat per veure el nom de l'estació.

Feu clic per veure les observacions i els pronòstics meteorològics.

Per canviar el mapa: feu clic els botons verds amb una creu de color negre per apropar; al botó verd amb un guió per allunyar la imatge; o en les fletxes verdes per a mapes adjacents.


METAR-TAF: